sensor_id;sensor_type;location;lat;lon;timestamp;P1;durP1;ratioP1;P2;durP2;ratioP2
73550;SDS011;61816;53.582;10.096;2023-04-25T00:01:59;20.23;;;7.50;;
73550;SDS011;61816;53.582;10.096;2023-04-25T00:04:25;17.77;;;7.95;;
73550;SDS011;61816;53.582;10.096;2023-04-25T00:06:55;24.05;;;8.95;;
73550;SDS011;61816;53.582;10.096;2023-04-25T00:09:21;25.85;;;9.30;;
73550;SDS011;61816;53.582;10.096;2023-04-25T00:11:47;23.80;;;9.10;;
73550;SDS011;61816;53.582;10.096;2023-04-25T00:14:13;26.77;;;8.93;;
73550;SDS011;61816;53.582;10.096;2023-04-25T00:16:39;27.30;;;8.48;;
73550;SDS011;61816;53.582;10.096;2023-04-25T00:19:06;25.52;;;8.98;;
73550;SDS011;61816;53.582;10.096;2023-04-25T00:21:32;30.52;;;9.57;;
73550;SDS011;61816;53.582;10.096;2023-04-25T00:23:58;37.38;;;10.50;;
73550;SDS011;61816;53.582;10.096;2023-04-25T00:26:24;33.55;;;7.75;;
73550;SDS011;61816;53.582;10.096;2023-04-25T00:28:49;47.33;;;8.65;;
73550;SDS011;61816;53.582;10.096;2023-04-25T00:31:15;31.42;;;8.00;;
73550;SDS011;61816;53.582;10.096;2023-04-25T00:33:43;47.92;;;8.18;;
73550;SDS011;61816;53.582;10.096;2023-04-25T00:36:08;53.78;;;9.68;;
73550;SDS011;61816;53.582;10.096;2023-04-25T00:38:34;48.38;;;8.68;;
73550;SDS011;61816;53.582;10.096;2023-04-25T00:41:00;36.25;;;7.43;;
73550;SDS011;61816;53.582;10.096;2023-04-25T00:43:26;59.55;;;7.88;;
73550;SDS011;61816;53.582;10.096;2023-04-25T00:45:52;48.20;;;8.98;;
73550;SDS011;61816;53.582;10.096;2023-04-25T00:48:18;31.25;;;7.25;;
73550;SDS011;61816;53.582;10.096;2023-04-25T00:50:48;42.15;;;6.70;;
73550;SDS011;61816;53.582;10.096;2023-04-25T00:53:17;53.83;;;8.35;;
73550;SDS011;61816;53.582;10.096;2023-04-25T00:55:43;58.28;;;7.85;;
73550;SDS011;61816;53.582;10.096;2023-04-25T00:58:08;46.85;;;6.72;;
73550;SDS011;61816;53.582;10.096;2023-04-25T01:00:34;48.03;;;7.07;;
73550;SDS011;61816;53.582;10.096;2023-04-25T01:03:00;58.33;;;8.75;;
73550;SDS011;61816;53.582;10.096;2023-04-25T01:05:25;46.85;;;6.13;;
73550;SDS011;61816;53.582;10.096;2023-04-25T01:07:50;48.42;;;7.38;;
73550;SDS011;61816;53.582;10.096;2023-04-25T01:10:16;54.63;;;6.60;;
73550;SDS011;61816;53.582;10.096;2023-04-25T01:12:42;62.25;;;8.63;;
73550;SDS011;61816;53.582;10.096;2023-04-25T01:15:07;49.15;;;7.35;;
73550;SDS011;61816;53.582;10.096;2023-04-25T01:17:33;45.50;;;7.45;;
73550;SDS011;61816;53.582;10.096;2023-04-25T01:20:00;43.88;;;7.32;;
73550;SDS011;61816;53.582;10.096;2023-04-25T01:22:31;58.20;;;8.40;;
73550;SDS011;61816;53.582;10.096;2023-04-25T01:24:57;55.40;;;6.97;;
73550;SDS011;61816;53.582;10.096;2023-04-25T01:27:23;42.53;;;7.18;;
73550;SDS011;61816;53.582;10.096;2023-04-25T01:29:50;45.97;;;7.32;;
73550;SDS011;61816;53.582;10.096;2023-04-25T01:32:16;41.80;;;7.63;;
73550;SDS011;61816;53.582;10.096;2023-04-25T01:34:42;47.63;;;8.38;;
73550;SDS011;61816;53.582;10.096;2023-04-25T01:37:07;54.90;;;8.02;;
73550;SDS011;61816;53.582;10.096;2023-04-25T01:39:32;55.80;;;7.05;;
73550;SDS011;61816;53.582;10.096;2023-04-25T01:41:58;59.70;;;8.70;;
73550;SDS011;61816;53.582;10.096;2023-04-25T01:44:24;46.05;;;7.30;;
73550;SDS011;61816;53.582;10.096;2023-04-25T01:46:50;49.78;;;7.95;;
73550;SDS011;61816;53.582;10.096;2023-04-25T01:49:16;48.88;;;7.47;;
73550;SDS011;61816;53.582;10.096;2023-04-25T01:51:41;39.03;;;7.38;;
73550;SDS011;61816;53.582;10.096;2023-04-25T01:54:08;44.53;;;8.02;;
73550;SDS011;61816;53.582;10.096;2023-04-25T01:56:36;49.92;;;7.45;;
73550;SDS011;61816;53.582;10.096;2023-04-25T01:59:03;50.60;;;6.55;;
73550;SDS011;61816;53.582;10.096;2023-04-25T02:01:29;46.00;;;8.40;;
73550;SDS011;61816;53.582;10.096;2023-04-25T02:03:55;58.53;;;7.72;;
73550;SDS011;61816;53.582;10.096;2023-04-25T02:06:20;45.40;;;8.63;;
73550;SDS011;61816;53.582;10.096;2023-04-25T02:08:45;49.58;;;7.75;;
73550;SDS011;61816;53.582;10.096;2023-04-25T02:11:11;43.97;;;7.22;;
73550;SDS011;61816;53.582;10.096;2023-04-25T02:13:36;47.22;;;6.50;;
73550;SDS011;61816;53.582;10.096;2023-04-25T02:16:01;53.63;;;8.52;;
73550;SDS011;61816;53.582;10.096;2023-04-25T02:18:27;68.90;;;7.05;;
73550;SDS011;61816;53.582;10.096;2023-04-25T02:20:52;36.95;;;7.10;;
73550;SDS011;61816;53.582;10.096;2023-04-25T02:23:18;55.63;;;7.70;;
73550;SDS011;61816;53.582;10.096;2023-04-25T02:25:46;51.92;;;6.82;;
73550;SDS011;61816;53.582;10.096;2023-04-25T02:28:12;44.85;;;6.22;;
73550;SDS011;61816;53.582;10.096;2023-04-25T02:30:37;52.80;;;7.78;;
73550;SDS011;61816;53.582;10.096;2023-04-25T02:33:02;49.72;;;7.32;;
73550;SDS011;61816;53.582;10.096;2023-04-25T02:35:28;44.08;;;7.90;;
73550;SDS011;61816;53.582;10.096;2023-04-25T02:37:53;48.17;;;6.35;;
73550;SDS011;61816;53.582;10.096;2023-04-25T02:40:19;48.90;;;7.03;;
73550;SDS011;61816;53.582;10.096;2023-04-25T02:42:45;41.83;;;5.97;;
73550;SDS011;61816;53.582;10.096;2023-04-25T02:45:13;54.38;;;7.20;;
73550;SDS011;61816;53.582;10.096;2023-04-25T02:47:39;60.47;;;8.20;;
73550;SDS011;61816;53.582;10.096;2023-04-25T02:50:04;37.85;;;6.88;;
73550;SDS011;61816;53.582;10.096;2023-04-25T02:52:30;44.25;;;7.38;;
73550;SDS011;61816;53.582;10.096;2023-04-25T02:54:55;47.55;;;7.10;;
73550;SDS011;61816;53.582;10.096;2023-04-25T02:57:21;40.20;;;7.95;;
73550;SDS011;61816;53.582;10.096;2023-04-25T02:59:46;40.65;;;6.63;;
73550;SDS011;61816;53.582;10.096;2023-04-25T03:02:12;56.25;;;9.43;;
73550;SDS011;61816;53.582;10.096;2023-04-25T03:04:37;40.08;;;7.15;;
73550;SDS011;61816;53.582;10.096;2023-04-25T03:07:02;62.25;;;8.55;;
73550;SDS011;61816;53.582;10.096;2023-04-25T03:09:29;46.08;;;6.93;;
73550;SDS011;61816;53.582;10.096;2023-04-25T03:11:54;43.03;;;7.13;;
73550;SDS011;61816;53.582;10.096;2023-04-25T03:14:20;46.53;;;6.20;;
73550;SDS011;61816;53.582;10.096;2023-04-25T03:16:45;49.05;;;7.47;;
73550;SDS011;61816;53.582;10.096;2023-04-25T03:19:10;43.08;;;8.38;;
73550;SDS011;61816;53.582;10.096;2023-04-25T03:21:36;57.38;;;6.95;;
73550;SDS011;61816;53.582;10.096;2023-04-25T03:24:02;34.50;;;6.13;;
73550;SDS011;61816;53.582;10.096;2023-04-25T03:26:28;39.10;;;8.35;;
73550;SDS011;61816;53.582;10.096;2023-04-25T03:28:54;49.22;;;7.63;;
73550;SDS011;61816;53.582;10.096;2023-04-25T03:31:19;52.97;;;5.43;;
73550;SDS011;61816;53.582;10.096;2023-04-25T03:33:45;45.95;;;6.60;;
73550;SDS011;61816;53.582;10.096;2023-04-25T03:36:10;47.10;;;6.47;;
73550;SDS011;61816;53.582;10.096;2023-04-25T03:38:36;39.08;;;6.40;;
73550;SDS011;61816;53.582;10.096;2023-04-25T03:41:01;46.75;;;6.65;;
73550;SDS011;61816;53.582;10.096;2023-04-25T03:43:27;33.03;;;5.28;;
73550;SDS011;61816;53.582;10.096;2023-04-25T03:45:53;34.25;;;5.45;;
73550;SDS011;61816;53.582;10.096;2023-04-25T03:48:18;42.00;;;6.63;;
73550;SDS011;61816;53.582;10.096;2023-04-25T03:50:46;47.85;;;6.80;;
73550;SDS011;61816;53.582;10.096;2023-04-25T03:53:12;43.30;;;6.93;;
73550;SDS011;61816;53.582;10.096;2023-04-25T03:55:37;40.28;;;7.82;;
73550;SDS011;61816;53.582;10.096;2023-04-25T03:58:03;52.35;;;6.88;;
73550;SDS011;61816;53.582;10.096;2023-04-25T04:00:28;41.05;;;6.03;;
73550;SDS011;61816;53.582;10.096;2023-04-25T04:02:53;30.98;;;5.35;;
73550;SDS011;61816;53.582;10.096;2023-04-25T04:05:19;33.45;;;6.10;;
73550;SDS011;61816;53.582;10.096;2023-04-25T04:07:44;31.63;;;5.90;;
73550;SDS011;61816;53.582;10.096;2023-04-25T04:10:10;28.42;;;5.28;;
73550;SDS011;61816;53.582;10.096;2023-04-25T04:12:35;47.80;;;6.55;;
73550;SDS011;61816;53.582;10.096;2023-04-25T04:15:04;40.88;;;6.05;;
73550;SDS011;61816;53.582;10.096;2023-04-25T04:17:31;46.22;;;7.78;;
73550;SDS011;61816;53.582;10.096;2023-04-25T04:19:56;38.40;;;5.57;;
73550;SDS011;61816;53.582;10.096;2023-04-25T04:22:22;31.10;;;4.93;;
73550;SDS011;61816;53.582;10.096;2023-04-25T04:24:48;35.33;;;5.60;;
73550;SDS011;61816;53.582;10.096;2023-04-25T04:27:15;30.27;;;4.63;;
73550;SDS011;61816;53.582;10.096;2023-04-25T04:29:42;42.40;;;4.97;;
73550;SDS011;61816;53.582;10.096;2023-04-25T04:32:08;34.58;;;6.05;;
73550;SDS011;61816;53.582;10.096;2023-04-25T04:34:33;28.92;;;5.45;;
73550;SDS011;61816;53.582;10.096;2023-04-25T04:37:00;34.20;;;5.35;;
73550;SDS011;61816;53.582;10.096;2023-04-25T04:39:25;54.75;;;7.05;;
73550;SDS011;61816;53.582;10.096;2023-04-25T04:41:50;33.88;;;6.15;;
73550;SDS011;61816;53.582;10.096;2023-04-25T04:44:16;33.03;;;5.93;;
73550;SDS011;61816;53.582;10.096;2023-04-25T04:46:42;39.78;;;6.35;;
73550;SDS011;61816;53.582;10.096;2023-04-25T04:49:10;39.20;;;5.30;;
73550;SDS011;61816;53.582;10.096;2023-04-25T04:51:37;36.17;;;5.38;;
73550;SDS011;61816;53.582;10.096;2023-04-25T04:54:03;31.13;;;4.88;;
73550;SDS011;61816;53.582;10.096;2023-04-25T04:56:29;26.42;;;4.93;;
73550;SDS011;61816;53.582;10.096;2023-04-25T04:58:56;41.13;;;5.07;;
73550;SDS011;61816;53.582;10.096;2023-04-25T05:01:21;30.83;;;4.82;;
73550;SDS011;61816;53.582;10.096;2023-04-25T05:03:47;44.15;;;6.03;;
73550;SDS011;61816;53.582;10.096;2023-04-25T05:06:13;43.88;;;6.53;;
73550;SDS011;61816;53.582;10.096;2023-04-25T05:08:38;31.02;;;5.50;;
73550;SDS011;61816;53.582;10.096;2023-04-25T05:11:03;28.48;;;5.75;;
73550;SDS011;61816;53.582;10.096;2023-04-25T05:13:29;20.15;;;4.22;;
73550;SDS011;61816;53.582;10.096;2023-04-25T05:15:54;28.15;;;4.72;;
73550;SDS011;61816;53.582;10.096;2023-04-25T05:18:20;38.17;;;5.72;;
73550;SDS011;61816;53.582;10.096;2023-04-25T05:20:45;39.55;;;6.47;;
73550;SDS011;61816;53.582;10.096;2023-04-25T05:23:10;33.85;;;5.63;;
73550;SDS011;61816;53.582;10.096;2023-04-25T05:25:36;40.20;;;7.00;;
73550;SDS011;61816;53.582;10.096;2023-04-25T05:28:01;27.45;;;5.13;;
73550;SDS011;61816;53.582;10.096;2023-04-25T05:30:27;34.55;;;6.82;;
73550;SDS011;61816;53.582;10.096;2023-04-25T05:32:52;32.35;;;5.15;;
73550;SDS011;61816;53.582;10.096;2023-04-25T05:35:17;32.70;;;5.15;;
73550;SDS011;61816;53.582;10.096;2023-04-25T05:37:43;33.78;;;4.80;;
73550;SDS011;61816;53.582;10.096;2023-04-25T05:40:08;24.35;;;5.13;;
73550;SDS011;61816;53.582;10.096;2023-04-25T05:42:34;41.67;;;5.80;;
73550;SDS011;61816;53.582;10.096;2023-04-25T05:45:00;27.73;;;5.30;;
73550;SDS011;61816;53.582;10.096;2023-04-25T05:47:25;37.65;;;5.47;;
73550;SDS011;61816;53.582;10.096;2023-04-25T05:49:51;34.90;;;4.90;;
73550;SDS011;61816;53.582;10.096;2023-04-25T05:52:16;29.55;;;4.50;;
73550;SDS011;61816;53.582;10.096;2023-04-25T05:54:42;33.30;;;5.78;;
73550;SDS011;61816;53.582;10.096;2023-04-25T05:57:07;44.75;;;5.88;;
73550;SDS011;61816;53.582;10.096;2023-04-25T05:59:32;43.80;;;6.68;;
73550;SDS011;61816;53.582;10.096;2023-04-25T06:01:58;40.03;;;5.63;;
73550;SDS011;61816;53.582;10.096;2023-04-25T06:04:23;31.20;;;4.82;;
73550;SDS011;61816;53.582;10.096;2023-04-25T06:06:50;43.75;;;5.47;;
73550;SDS011;61816;53.582;10.096;2023-04-25T06:09:15;41.22;;;6.03;;
73550;SDS011;61816;53.582;10.096;2023-04-25T06:11:41;31.88;;;5.25;;
73550;SDS011;61816;53.582;10.096;2023-04-25T06:14:06;44.72;;;6.45;;
73550;SDS011;61816;53.582;10.096;2023-04-25T06:16:32;30.42;;;4.88;;
73550;SDS011;61816;53.582;10.096;2023-04-25T06:18:57;37.08;;;5.68;;
73550;SDS011;61816;53.582;10.096;2023-04-25T06:21:23;41.72;;;5.70;;
73550;SDS011;61816;53.582;10.096;2023-04-25T06:23:48;32.15;;;5.07;;
73550;SDS011;61816;53.582;10.096;2023-04-25T06:26:13;39.10;;;4.57;;
73550;SDS011;61816;53.582;10.096;2023-04-25T06:28:39;28.17;;;5.07;;
73550;SDS011;61816;53.582;10.096;2023-04-25T06:31:04;38.92;;;5.25;;
73550;SDS011;61816;53.582;10.096;2023-04-25T06:33:30;35.88;;;5.35;;
73550;SDS011;61816;53.582;10.096;2023-04-25T06:35:55;39.67;;;4.68;;
73550;SDS011;61816;53.582;10.096;2023-04-25T06:38:20;26.38;;;4.93;;
73550;SDS011;61816;53.582;10.096;2023-04-25T06:40:46;28.13;;;5.00;;
73550;SDS011;61816;53.582;10.096;2023-04-25T06:43:11;29.73;;;5.07;;
73550;SDS011;61816;53.582;10.096;2023-04-25T06:45:36;35.03;;;6.07;;
73550;SDS011;61816;53.582;10.096;2023-04-25T06:48:02;34.85;;;5.10;;
73550;SDS011;61816;53.582;10.096;2023-04-25T06:50:27;46.90;;;7.65;;
73550;SDS011;61816;53.582;10.096;2023-04-25T06:52:52;25.55;;;4.80;;
73550;SDS011;61816;53.582;10.096;2023-04-25T06:55:18;28.05;;;4.28;;
73550;SDS011;61816;53.582;10.096;2023-04-25T06:57:43;23.90;;;4.35;;
73550;SDS011;61816;53.582;10.096;2023-04-25T07:00:09;30.63;;;6.10;;
73550;SDS011;61816;53.582;10.096;2023-04-25T07:02:35;22.40;;;4.75;;
73550;SDS011;61816;53.582;10.096;2023-04-25T07:05:01;38.75;;;5.63;;
73550;SDS011;61816;53.582;10.096;2023-04-25T07:07:29;29.25;;;4.70;;
73550;SDS011;61816;53.582;10.096;2023-04-25T07:09:57;30.38;;;4.47;;
73550;SDS011;61816;53.582;10.096;2023-04-25T07:12:22;36.28;;;5.35;;
73550;SDS011;61816;53.582;10.096;2023-04-25T07:14:48;36.05;;;5.10;;
73550;SDS011;61816;53.582;10.096;2023-04-25T07:17:13;26.67;;;4.60;;
73550;SDS011;61816;53.582;10.096;2023-04-25T07:19:38;22.75;;;3.70;;
73550;SDS011;61816;53.582;10.096;2023-04-25T07:22:05;30.30;;;6.32;;
73550;SDS011;61816;53.582;10.096;2023-04-25T07:24:31;20.92;;;3.88;;
73550;SDS011;61816;53.582;10.096;2023-04-25T07:26:56;27.23;;;4.88;;
73550;SDS011;61816;53.582;10.096;2023-04-25T07:29:23;23.42;;;4.00;;
73550;SDS011;61816;53.582;10.096;2023-04-25T07:31:48;23.80;;;4.30;;
73550;SDS011;61816;53.582;10.096;2023-04-25T07:34:14;31.23;;;4.28;;
73550;SDS011;61816;53.582;10.096;2023-04-25T07:36:39;28.10;;;3.70;;
73550;SDS011;61816;53.582;10.096;2023-04-25T07:39:05;29.17;;;4.55;;
73550;SDS011;61816;53.582;10.096;2023-04-25T07:41:30;31.08;;;5.07;;
73550;SDS011;61816;53.582;10.096;2023-04-25T07:43:55;44.47;;;5.13;;
73550;SDS011;61816;53.582;10.096;2023-04-25T07:46:21;39.78;;;4.65;;
73550;SDS011;61816;53.582;10.096;2023-04-25T07:48:46;29.60;;;4.53;;
73550;SDS011;61816;53.582;10.096;2023-04-25T07:51:11;25.83;;;3.65;;
73550;SDS011;61816;53.582;10.096;2023-04-25T07:53:37;28.67;;;4.63;;
73550;SDS011;61816;53.582;10.096;2023-04-25T07:56:03;18.75;;;3.78;;
73550;SDS011;61816;53.582;10.096;2023-04-25T07:58:28;23.30;;;4.45;;
73550;SDS011;61816;53.582;10.096;2023-04-25T08:00:54;36.08;;;4.13;;
73550;SDS011;61816;53.582;10.096;2023-04-25T08:03:20;25.83;;;4.82;;
73550;SDS011;61816;53.582;10.096;2023-04-25T08:05:46;26.13;;;3.60;;
73550;SDS011;61816;53.582;10.096;2023-04-25T08:08:11;32.33;;;3.88;;
73550;SDS011;61816;53.582;10.096;2023-04-25T08:10:37;31.90;;;4.53;;
73550;SDS011;61816;53.582;10.096;2023-04-25T08:13:02;34.20;;;4.78;;
73550;SDS011;61816;53.582;10.096;2023-04-25T08:15:28;26.58;;;5.03;;
73550;SDS011;61816;53.582;10.096;2023-04-25T08:17:53;37.50;;;4.55;;
73550;SDS011;61816;53.582;10.096;2023-04-25T08:20:18;23.02;;;3.80;;
73550;SDS011;61816;53.582;10.096;2023-04-25T08:22:44;24.83;;;4.40;;
73550;SDS011;61816;53.582;10.096;2023-04-25T08:25:09;25.55;;;4.95;;
73550;SDS011;61816;53.582;10.096;2023-04-25T08:27:34;30.65;;;5.00;;
73550;SDS011;61816;53.582;10.096;2023-04-25T08:30:00;25.75;;;4.05;;
73550;SDS011;61816;53.582;10.096;2023-04-25T08:32:26;26.42;;;3.42;;
73550;SDS011;61816;53.582;10.096;2023-04-25T08:34:52;19.88;;;3.95;;
73550;SDS011;61816;53.582;10.096;2023-04-25T08:37:19;23.38;;;3.33;;
73550;SDS011;61816;53.582;10.096;2023-04-25T08:39:45;22.98;;;3.33;;
73550;SDS011;61816;53.582;10.096;2023-04-25T08:42:12;20.50;;;3.13;;
73550;SDS011;61816;53.582;10.096;2023-04-25T08:44:37;29.15;;;3.83;;
73550;SDS011;61816;53.582;10.096;2023-04-25T08:47:03;25.27;;;3.53;;
73550;SDS011;61816;53.582;10.096;2023-04-25T08:49:33;24.83;;;3.65;;
73550;SDS011;61816;53.582;10.096;2023-04-25T08:52:03;19.15;;;3.35;;
73550;SDS011;61816;53.582;10.096;2023-04-25T08:54:32;22.55;;;4.15;;
73550;SDS011;61816;53.582;10.096;2023-04-25T08:57:01;30.92;;;4.55;;
73550;SDS011;61816;53.582;10.096;2023-04-25T08:59:28;24.23;;;3.35;;
73550;SDS011;61816;53.582;10.096;2023-04-25T09:01:55;28.85;;;4.63;;
73550;SDS011;61816;53.582;10.096;2023-04-25T09:04:20;35.72;;;3.97;;
73550;SDS011;61816;53.582;10.096;2023-04-25T09:06:46;24.45;;;4.47;;
73550;SDS011;61816;53.582;10.096;2023-04-25T09:09:12;27.02;;;3.60;;
73550;SDS011;61816;53.582;10.096;2023-04-25T09:11:37;28.83;;;3.90;;
73550;SDS011;61816;53.582;10.096;2023-04-25T09:14:21;22.90;;;3.85;;
73550;SDS011;61816;53.582;10.096;2023-04-25T09:16:56;26.83;;;4.53;;
73550;SDS011;61816;53.582;10.096;2023-04-25T09:19:24;22.67;;;4.40;;
73550;SDS011;61816;53.582;10.096;2023-04-25T09:21:55;35.25;;;4.05;;
73550;SDS011;61816;53.582;10.096;2023-04-25T09:24:31;18.70;;;3.72;;
73550;SDS011;61816;53.582;10.096;2023-04-25T09:27:11;18.00;;;3.20;;
73550;SDS011;61816;53.582;10.096;2023-04-25T09:29:39;16.30;;;2.65;;
73550;SDS011;61816;53.582;10.096;2023-04-25T09:32:24;18.00;;;3.58;;
73550;SDS011;61816;53.582;10.096;2023-04-25T09:34:51;22.20;;;4.47;;
73550;SDS011;61816;53.582;10.096;2023-04-25T09:37:28;17.13;;;3.17;;
73550;SDS011;61816;53.582;10.096;2023-04-25T09:39:58;27.50;;;3.60;;
73550;SDS011;61816;53.582;10.096;2023-04-25T09:42:28;19.48;;;2.95;;
73550;SDS011;61816;53.582;10.096;2023-04-25T09:44:56;21.77;;;3.70;;
73550;SDS011;61816;53.582;10.096;2023-04-25T09:47:23;23.25;;;3.88;;
73550;SDS011;61816;53.582;10.096;2023-04-25T09:49:54;14.18;;;2.80;;
73550;SDS011;61816;53.582;10.096;2023-04-25T09:54:49;15.85;;;2.92;;
73550;SDS011;61816;53.582;10.096;2023-04-25T09:57:19;23.58;;;2.78;;
73550;SDS011;61816;53.582;10.096;2023-04-25T09:59:47;13.75;;;2.53;;
73550;SDS011;61816;53.582;10.096;2023-04-25T10:02:21;24.92;;;3.83;;
73550;SDS011;61816;53.582;10.096;2023-04-25T10:04:48;34.97;;;4.18;;
73550;SDS011;61816;53.582;10.096;2023-04-25T10:07:17;16.90;;;2.90;;
73550;SDS011;61816;53.582;10.096;2023-04-25T10:09:44;23.58;;;3.63;;
73550;SDS011;61816;53.582;10.096;2023-04-25T10:12:13;21.17;;;3.45;;
73550;SDS011;61816;53.582;10.096;2023-04-25T10:14:38;23.25;;;3.55;;
73550;SDS011;61816;53.582;10.096;2023-04-25T10:17:05;30.00;;;3.83;;
73550;SDS011;61816;53.582;10.096;2023-04-25T10:19:31;24.58;;;3.92;;
73550;SDS011;61816;53.582;10.096;2023-04-25T10:24:39;20.70;;;3.40;;
73550;SDS011;61816;53.582;10.096;2023-04-25T10:27:06;13.00;;;2.20;;
73550;SDS011;61816;53.582;10.096;2023-04-25T10:29:32;15.30;;;2.78;;
73550;SDS011;61816;53.582;10.096;2023-04-25T10:31:57;23.27;;;2.95;;
73550;SDS011;61816;53.582;10.096;2023-04-25T10:34:23;24.75;;;3.38;;
73550;SDS011;61816;53.582;10.096;2023-04-25T10:37:02;11.90;;;2.53;;
73550;SDS011;61816;53.582;10.096;2023-04-25T10:39:28;16.05;;;3.22;;
73550;SDS011;61816;53.582;10.096;2023-04-25T10:41:57;18.73;;;3.00;;
73550;SDS011;61816;53.582;10.096;2023-04-25T10:44:26;27.58;;;3.22;;
73550;SDS011;61816;53.582;10.096;2023-04-25T10:46:57;16.75;;;2.78;;
73550;SDS011;61816;53.582;10.096;2023-04-25T10:49:36;19.30;;;3.90;;
73550;SDS011;61816;53.582;10.096;2023-04-25T10:54:47;23.40;;;3.55;;
73550;SDS011;61816;53.582;10.096;2023-04-25T10:57:27;24.10;;;3.38;;
73550;SDS011;61816;53.582;10.096;2023-04-25T10:59:57;26.48;;;3.28;;
73550;SDS011;61816;53.582;10.096;2023-04-25T11:02:30;18.98;;;2.67;;
73550;SDS011;61816;53.582;10.096;2023-04-25T11:04:56;19.42;;;3.25;;
73550;SDS011;61816;53.582;10.096;2023-04-25T11:10:03;19.33;;;3.53;;
73550;SDS011;61816;53.582;10.096;2023-04-25T11:12:30;24.42;;;2.92;;
73550;SDS011;61816;53.582;10.096;2023-04-25T11:15:03;11.93;;;2.88;;
73550;SDS011;61816;53.582;10.096;2023-04-25T11:17:30;13.48;;;2.88;;
73550;SDS011;61816;53.582;10.096;2023-04-25T11:19:55;19.73;;;4.20;;
73550;SDS011;61816;53.582;10.096;2023-04-25T11:22:21;13.75;;;3.17;;
73550;SDS011;61816;53.582;10.096;2023-04-25T11:24:47;26.02;;;3.72;;
73550;SDS011;61816;53.582;10.096;2023-04-25T11:27:13;18.52;;;2.25;;
73550;SDS011;61816;53.582;10.096;2023-04-25T11:29:38;17.42;;;2.85;;
73550;SDS011;61816;53.582;10.096;2023-04-25T11:32:04;17.85;;;3.00;;
73550;SDS011;61816;53.582;10.096;2023-04-25T11:34:30;17.75;;;2.08;;
73550;SDS011;61816;53.582;10.096;2023-04-25T11:36:58;17.13;;;3.53;;
73550;SDS011;61816;53.582;10.096;2023-04-25T11:39:24;16.40;;;2.13;;
73550;SDS011;61816;53.582;10.096;2023-04-25T11:41:51;20.00;;;2.65;;
73550;SDS011;61816;53.582;10.096;2023-04-25T11:44:17;26.52;;;3.03;;
73550;SDS011;61816;53.582;10.096;2023-04-25T11:46:44;13.02;;;2.45;;
73550;SDS011;61816;53.582;10.096;2023-04-25T11:49:11;17.42;;;3.33;;
73550;SDS011;61816;53.582;10.096;2023-04-25T11:51:40;24.23;;;2.85;;
73550;SDS011;61816;53.582;10.096;2023-04-25T11:54:06;33.03;;;3.50;;
73550;SDS011;61816;53.582;10.096;2023-04-25T11:56:32;27.08;;;3.97;;
73550;SDS011;61816;53.582;10.096;2023-04-25T11:59:02;18.45;;;3.33;;
73550;SDS011;61816;53.582;10.096;2023-04-25T12:01:30;10.73;;;2.85;;
73550;SDS011;61816;53.582;10.096;2023-04-25T12:03:57;21.77;;;3.47;;
73550;SDS011;61816;53.582;10.096;2023-04-25T12:06:27;13.77;;;3.35;;
73550;SDS011;61816;53.582;10.096;2023-04-25T12:09:03;11.32;;;2.85;;
73550;SDS011;61816;53.582;10.096;2023-04-25T12:11:30;8.00;;;2.72;;
73550;SDS011;61816;53.582;10.096;2023-04-25T12:14:01;23.45;;;2.90;;
73550;SDS011;61816;53.582;10.096;2023-04-25T12:16:30;10.48;;;2.60;;
73550;SDS011;61816;53.582;10.096;2023-04-25T12:19:05;9.02;;;2.13;;
73550;SDS011;61816;53.582;10.096;2023-04-25T12:21:32;11.50;;;2.05;;
73550;SDS011;61816;53.582;10.096;2023-04-25T12:24:07;14.80;;;2.60;;
73550;SDS011;61816;53.582;10.096;2023-04-25T12:29:32;9.90;;;2.15;;
73550;SDS011;61816;53.582;10.096;2023-04-25T12:31:58;10.10;;;2.35;;
73550;SDS011;61816;53.582;10.096;2023-04-25T12:34:24;9.73;;;2.35;;
73550;SDS011;61816;53.582;10.096;2023-04-25T12:36:50;13.60;;;2.60;;
73550;SDS011;61816;53.582;10.096;2023-04-25T12:39:17;13.13;;;2.72;;
73550;SDS011;61816;53.582;10.096;2023-04-25T12:41:44;8.60;;;1.98;;
73550;SDS011;61816;53.582;10.096;2023-04-25T12:44:11;8.80;;;2.03;;
73550;SDS011;61816;53.582;10.096;2023-04-25T12:46:37;8.18;;;1.70;;
73550;SDS011;61816;53.582;10.096;2023-04-25T12:49:03;15.48;;;1.70;;
73550;SDS011;61816;53.582;10.096;2023-04-25T12:51:30;9.00;;;2.00;;
73550;SDS011;61816;53.582;10.096;2023-04-25T12:53:57;16.23;;;2.38;;
73550;SDS011;61816;53.582;10.096;2023-04-25T12:56:24;13.70;;;2.20;;
73550;SDS011;61816;53.582;10.096;2023-04-25T12:58:50;9.20;;;1.95;;
73550;SDS011;61816;53.582;10.096;2023-04-25T13:01:16;14.07;;;2.15;;
73550;SDS011;61816;53.582;10.096;2023-04-25T13:03:41;20.90;;;2.00;;
73550;SDS011;61816;53.582;10.096;2023-04-25T13:06:06;12.18;;;2.25;;
73550;SDS011;61816;53.582;10.096;2023-04-25T13:08:32;17.88;;;2.85;;
73550;SDS011;61816;53.582;10.096;2023-04-25T13:10:58;26.05;;;3.60;;
73550;SDS011;61816;53.582;10.096;2023-04-25T13:13:23;14.93;;;2.42;;
73550;SDS011;61816;53.582;10.096;2023-04-25T13:15:48;16.88;;;2.42;;
73550;SDS011;61816;53.582;10.096;2023-04-25T13:18:14;11.57;;;2.45;;
73550;SDS011;61816;53.582;10.096;2023-04-25T13:20:40;18.35;;;2.40;;
73550;SDS011;61816;53.582;10.096;2023-04-25T13:23:05;17.83;;;2.53;;
73550;SDS011;61816;53.582;10.096;2023-04-25T13:25:30;13.27;;;2.35;;
73550;SDS011;61816;53.582;10.096;2023-04-25T13:27:56;13.57;;;2.20;;
73550;SDS011;61816;53.582;10.096;2023-04-25T13:30:21;14.82;;;2.22;;
73550;SDS011;61816;53.582;10.096;2023-04-25T13:32:47;15.50;;;2.75;;
73550;SDS011;61816;53.582;10.096;2023-04-25T13:35:12;12.80;;;2.25;;
73550;SDS011;61816;53.582;10.096;2023-04-25T13:37:39;20.65;;;2.03;;
73550;SDS011;61816;53.582;10.096;2023-04-25T13:40:08;21.02;;;3.05;;
73550;SDS011;61816;53.582;10.096;2023-04-25T13:42:35;17.48;;;2.92;;
73550;SDS011;61816;53.582;10.096;2023-04-25T13:45:01;15.57;;;3.10;;
73550;SDS011;61816;53.582;10.096;2023-04-25T13:47:27;22.70;;;3.00;;
73550;SDS011;61816;53.582;10.096;2023-04-25T13:49:53;18.13;;;3.50;;
73550;SDS011;61816;53.582;10.096;2023-04-25T13:52:19;13.38;;;2.83;;
73550;SDS011;61816;53.582;10.096;2023-04-25T13:54:45;11.82;;;3.05;;
73550;SDS011;61816;53.582;10.096;2023-04-25T13:57:10;16.48;;;2.92;;
73550;SDS011;61816;53.582;10.096;2023-04-25T13:59:36;21.58;;;3.00;;
73550;SDS011;61816;53.582;10.096;2023-04-25T14:02:02;17.67;;;3.47;;
73550;SDS011;61816;53.582;10.096;2023-04-25T14:04:27;14.80;;;3.33;;
73550;SDS011;61816;53.582;10.096;2023-04-25T14:06:53;14.65;;;2.80;;
73550;SDS011;61816;53.582;10.096;2023-04-25T14:09:18;36.17;;;3.75;;
73550;SDS011;61816;53.582;10.096;2023-04-25T14:11:45;18.65;;;3.47;;
73550;SDS011;61816;53.582;10.096;2023-04-25T14:14:11;7.97;;;2.13;;
73550;SDS011;61816;53.582;10.096;2023-04-25T14:16:38;11.80;;;2.13;;
73550;SDS011;61816;53.582;10.096;2023-04-25T14:19:03;16.10;;;3.70;;
73550;SDS011;61816;53.582;10.096;2023-04-25T14:21:29;15.52;;;3.35;;
73550;SDS011;61816;53.582;10.096;2023-04-25T14:23:57;14.40;;;2.20;;
73550;SDS011;61816;53.582;10.096;2023-04-25T14:26:22;12.80;;;2.63;;
73550;SDS011;61816;53.582;10.096;2023-04-25T14:28:47;21.75;;;2.90;;
73550;SDS011;61816;53.582;10.096;2023-04-25T14:31:13;15.70;;;3.58;;